Time;durP1;ratioP1;P1;durP2;ratioP2;P2;SDS_P1;SDS_P2;PMS_P1;PMS_P2;Temp;Humidity;BMP_temperature;BMP_pressure;BME280_temperature;BME280_humidity;BME280_pressure;Samples;Min_cycle;Max_cycle;Signal;HPM_P1;HPM_P2
2021/12/25 00:00:06;;;;;;;4.82;1.85;;;7.70;95.20;;;;;;5010912;28;20037;-78
2021/12/25 00:02:33;;;;;;;4.72;2.10;;;7.70;94.80;;;;;;5007378;28;20323;-78
2021/12/25 00:04:59;;;;;;;3.95;2.10;;;7.70;94.90;;;;;;5017706;28;20437;-78
2021/12/25 00:07:25;;;;;;;3.50;2.00;;;7.60;94.80;;;;;;5028948;28;20037;-78
2021/12/25 00:09:50;;;;;;;4.82;1.90;;;7.60;95.10;;;;;;5032138;28;20389;-77
2021/12/25 00:12:16;;;;;;;4.18;1.98;;;7.60;95.30;;;;;;5014034;28;20065;-78
2021/12/25 00:14:42;;;;;;;4.45;2.25;;;7.60;95.00;;;;;;5013527;28;20453;-78
2021/12/25 00:17:07;;;;;;;3.83;1.80;;;7.60;95.30;;;;;;5014475;28;20088;-78
2021/12/25 00:19:33;;;;;;;3.03;1.60;;;7.60;95.60;;;;;;5015069;28;20025;-78
2021/12/25 00:22:00;;;;;;;3.00;1.70;;;7.70;95.90;;;;;;5010884;28;20021;-78
2021/12/25 00:24:26;;;;;;;4.68;1.90;;;7.70;96.30;;;;;;5012979;28;20418;-77
2021/12/25 00:29:34;;;;;;;3.15;1.63;;;7.70;97.30;;;;;;5014685;28;20052;-78
2021/12/25 00:34:36;;;;;;;3.03;1.48;;;7.80;97.90;;;;;;5015916;28;20330;-78
2021/12/25 00:37:03;;;;;;;2.53;1.38;;;7.80;97.60;;;;;;5018454;28;20037;-78
2021/12/25 00:39:29;;;;;;;2.63;1.45;;;7.80;97.90;;;;;;5018226;28;20079;-78
2021/12/25 00:42:00;;;;;;;3.03;1.65;;;7.80;98.00;;;;;;5019576;28;20018;-78
2021/12/25 00:44:28;;;;;;;3.15;1.42;;;7.90;98.00;;;;;;5015832;28;20108;-78
2021/12/25 00:46:54;;;;;;;2.90;1.50;;;7.90;98.00;;;;;;5019295;28;20017;-78
2021/12/25 00:49:22;;;;;;;3.67;1.67;;;7.90;98.00;;;;;;5019988;28;20441;-78
2021/12/25 00:51:48;;;;;;;3.00;1.40;;;7.90;98.00;;;;;;5019718;28;20036;-78
2021/12/25 00:54:15;;;;;;;2.83;1.48;;;7.90;98.00;;;;;;5018166;28;20112;-78
2021/12/25 00:56:41;;;;;;;2.25;1.35;;;7.90;98.00;;;;;;5019306;28;20026;-78
2021/12/25 00:59:06;;;;;;;3.05;1.55;;;7.90;98.00;;;;;;5019441;28;20021;-78
2021/12/25 01:01:33;;;;;;;3.78;1.48;;;7.90;98.00;;;;;;5019133;28;20453;-78
2021/12/25 01:03:58;;;;;;;3.33;1.70;;;7.90;98.00;;;;;;5019294;28;20030;-78
2021/12/25 01:06:24;;;;;;;3.28;1.63;;;7.90;98.00;;;;;;5019197;28;20057;-78
2021/12/25 01:08:50;;;;;;;3.50;1.75;;;7.90;98.00;;;;;;5018264;28;20418;-78
2021/12/25 01:11:15;;;;;;;2.78;1.50;;;7.90;98.00;;;;;;5019187;28;20413;-78
2021/12/25 01:13:57;;;;;;;3.20;1.55;;;7.90;98.00;;;;;;5014926;28;20462;-78
2021/12/25 01:16:58;;;;;;;3.22;1.70;;;7.90;98.00;;;;;;5017752;28;20117;-78
2021/12/25 01:22:33;;;;;;;3.33;1.63;;;7.90;98.00;;;;;;5015679;28;20032;-78
2021/12/25 01:48:54;;;;;;;7.38;3.85;;;7.90;96.30;;;;;;5017513;28;20080;-78
2021/12/25 01:51:20;;;;;;;8.63;3.83;;;7.90;96.20;;;;;;5018231;28;20050;-78
2021/12/25 01:53:45;;;;;;;9.23;4.10;;;7.90;96.20;;;;;;5016761;28;20084;-78
2021/12/25 01:56:11;;;;;;;7.88;3.60;;;7.90;96.00;;;;;;5017020;28;20030;-78
2021/12/25 01:58:37;;;;;;;7.22;3.63;;;7.80;96.10;;;;;;5018038;28;20034;-78
2021/12/25 02:01:06;;;;;;;6.55;3.58;;;7.80;95.40;;;;;;5017822;28;20021;-77
2021/12/25 02:03:36;;;;;;;6.80;3.88;;;7.90;95.30;;;;;;5016992;28;20112;-78
2021/12/25 02:06:05;;;;;;;7.40;4.50;;;7.90;95.70;;;;;;5017764;28;20064;-78
2021/12/25 02:08:31;;;;;;;7.55;4.15;;;7.90;95.70;;;;;;5016948;28;20119;-78
2021/12/25 02:10:57;;;;;;;7.85;4.22;;;7.90;95.40;;;;;;5017387;28;20419;-78
2021/12/25 02:13:23;;;;;;;6.55;3.97;;;7.80;95.10;;;;;;5016415;28;20037;-77
2021/12/25 02:15:52;;;;;;;7.38;4.15;;;7.80;94.90;;;;;;5016846;28;20446;-78
2021/12/25 02:18:30;;;;;;;6.85;4.20;;;7.70;94.80;;;;;;5018232;28;20022;-78
2021/12/25 02:21:12;;;;;;;12.10;5.78;;;7.70;94.70;;;;;;5018213;28;20022;-78
2021/12/25 02:23:38;;;;;;;17.35;10.30;;;7.70;93.90;;;;;;5016693;28;20018;-78
2021/12/25 02:26:05;;;;;;;16.75;10.65;;;7.50;94.70;;;;;;5016574;28;20030;-78
2021/12/25 02:28:31;;;;;;;18.60;10.68;;;7.30;94.20;;;;;;5017646;28;20042;-78
2021/12/25 02:31:00;;;;;;;24.48;13.10;;;7.20;93.80;;;;;;5012764;28;20057;-78
2021/12/25 02:33:27;;;;;;;17.73;11.63;;;7.00;93.50;;;;;;5030179;28;20030;-78
2021/12/25 02:35:54;;;;;;;18.95;12.38;;;7.00;93.10;;;;;;5008611;28;20044;-78
2021/12/25 02:38:20;;;;;;;25.35;12.93;;;7.00;92.40;;;;;;5016302;28;20014;-77
2021/12/25 02:40:46;;;;;;;13.98;9.07;;;6.90;92.20;;;;;;5016411;28;20123;-78
2021/12/25 02:43:12;;;;;;;15.02;9.55;;;7.00;91.50;;;;;;5015810;28;20025;-78
2021/12/25 02:45:38;;;;;;;13.30;8.98;;;7.00;91.80;;;;;;5015962;28;20036;-78
2021/12/25 02:48:09;;;;;;;15.48;9.35;;;6.90;91.60;;;;;;5016896;28;20303;-77
2021/12/25 02:50:37;;;;;;;14.80;8.98;;;7.00;91.60;;;;;;5016795;28;20357;-77
2021/12/25 02:53:04;;;;;;;13.77;8.27;;;7.00;91.70;;;;;;5015782;28;20128;-78
2021/12/25 02:55:31;;;;;;;11.82;7.90;;;7.00;91.90;;;;;;5015812;28;20041;-78
2021/12/25 02:57:57;;;;;;;12.35;8.27;;;7.00;92.00;;;;;;5017160;28;20037;-78
2021/12/25 03:00:31;;;;;;;12.02;7.78;;;7.00;92.20;;;;;;5016258;28;20431;-77
2021/12/25 03:03:00;;;;;;;12.23;7.20;;;7.00;92.20;;;;;;5015123;28;20029;-77
2021/12/25 03:05:26;;;;;;;12.25;7.80;;;7.10;92.70;;;;;;5049218;28;20044;-77
2021/12/25 03:07:51;;;;;;;9.93;6.68;;;7.10;92.70;;;;;;5014436;28;20117;-77
2021/12/25 03:10:18;;;;;;;10.13;6.80;;;7.10;93.20;;;;;;5016371;28;20087;-77
2021/12/25 03:13:31;;;;;;;12.57;7.05;;;7.10;93.10;;;;;;5015897;28;20034;-77
2021/12/25 03:15:46;;;;;;;10.52;6.20;;;7.10;93.30;;;;;;5015356;28;20037;-77
2021/12/25 03:18:15;;;;;;;10.70;6.75;;;7.10;93.30;;;;;;5014359;28;20049;-77
2021/12/25 03:20:44;;;;;;;10.75;7.32;;;7.20;93.50;;;;;;5015381;28;20053;-77
2021/12/25 03:23:15;;;;;;;10.45;6.88;;;7.20;93.90;;;;;;5020092;28;20411;-77
2021/12/25 03:25:43;;;;;;;11.10;6.65;;;7.10;94.00;;;;;;5023234;28;20037;-77
2021/12/25 03:28:09;;;;;;;10.85;6.78;;;7.20;94.20;;;;;;5016406;28;20022;-78
2021/12/25 03:30:39;;;;;;;12.65;7.00;;;7.20;94.40;;;;;;5013194;28;20037;-77
2021/12/25 03:33:07;;;;;;;12.32;7.63;;;7.20;95.10;;;;;;5015887;28;20029;-77
2021/12/25 03:35:34;;;;;;;12.98;7.20;;;7.20;94.70;;;;;;5015091;28;20041;-77
2021/12/25 03:38:01;;;;;;;12.20;6.97;;;7.10;94.80;;;;;;5010474;28;20033;-77
2021/12/25 03:40:27;;;;;;;9.32;6.55;;;7.10;94.80;;;;;;5015902;28;20022;-77
2021/12/25 03:42:53;;;;;;;15.88;8.88;;;7.10;94.80;;;;;;5024894;28;20018;-77
2021/12/25 03:45:19;;;;;;;12.02;7.63;;;7.10;95.00;;;;;;5015092;28;20029;-77
2021/12/25 03:47:47;;;;;;;15.48;8.75;;;7.00;94.60;;;;;;5015608;28;20026;-77
2021/12/25 03:53:35;;;;;;;17.05;10.40;;;6.80;94.00;;;;;;5014307;28;20051;-77
2021/12/25 03:58:42;;;;;;;14.55;7.63;;;6.90;91.70;;;;;;5016494;28;20167;-77
2021/12/25 04:01:31;;;;;;;11.43;6.18;;;7.00;92.00;;;;;;5016638;28;20060;-77
2021/12/25 04:06:44;;;;;;;8.32;4.97;;;7.20;91.90;;;;;;5016488;28;20079;-77
2021/12/25 04:09:20;;;;;;;8.70;4.35;;;7.50;94.80;;;;;;5014746;28;20026;-77
2021/12/25 04:11:46;;;;;;;8.68;4.15;;;7.70;96.80;;;;;;5016099;28;20029;-77
2021/12/25 04:14:11;;;;;;;10.13;4.40;;;7.70;97.90;;;;;;5014838;28;20168;-77
2021/12/25 04:16:38;;;;;;;8.13;4.38;;;7.80;98.00;;;;;;5025397;28;20049;-77
2021/12/25 04:19:04;;;;;;;7.43;3.92;;;7.80;98.00;;;;;;5022874;28;20038;-77
2021/12/25 04:21:30;;;;;;;7.97;4.15;;;7.80;98.00;;;;;;5011878;28;20030;-77
2021/12/25 04:23:55;;;;;;;8.77;4.50;;;7.80;98.00;;;;;;5014516;28;20085;-77
2021/12/25 04:26:23;;;;;;;8.13;4.68;;;7.80;98.00;;;;;;5016354;28;20022;-77
2021/12/25 04:31:47;;;;;;;8.48;3.88;;;7.70;98.00;;;;;;5022726;28;20399;-79
2021/12/25 05:04:14;;;;;;;7.53;4.05;;;7.70;98.00;;;;;;5014949;28;19917;-77
2021/12/25 05:06:40;;;;;;;8.60;4.50;;;7.60;98.00;;;;;;5014949;28;20030;-78
2021/12/25 05:09:05;;;;;;;7.85;4.45;;;7.60;98.00;;;;;;5021151;28;20021;-77
2021/12/25 05:11:31;;;;;;;7.90;4.85;;;7.60;98.00;;;;;;5015667;28;20037;-77
2021/12/25 05:13:57;;;;;;;8.13;4.38;;;7.70;98.00;;;;;;5013068;28;20521;-77
2021/12/25 05:16:25;;;;;;;8.50;4.45;;;7.70;98.00;;;;;;5021266;28;20037;-77
2021/12/25 05:18:51;;;;;;;6.30;3.65;;;7.60;98.00;;;;;;5020365;28;20026;-78
2021/12/25 05:21:18;;;;;;;7.97;3.95;;;7.70;98.00;;;;;;5018779;28;20072;-77
2021/12/25 05:23:44;;;;;;;6.55;3.85;;;7.70;98.00;;;;;;5019680;28;20057;-77
2021/12/25 05:26:10;;;;;;;6.78;3.72;;;7.80;98.00;;;;;;5038042;28;20133;-78
2021/12/25 05:28:41;;;;;;;7.10;3.92;;;7.90;98.00;;;;;;5019143;28;20430;-78
2021/12/25 05:31:13;;;;;;;6.85;3.85;;;7.90;98.00;;;;;;5018823;28;20414;-78
2021/12/25 05:33:40;;;;;;;8.23;4.40;;;7.90;98.00;;;;;;5018752;28;20038;-78
2021/12/25 05:36:06;;;;;;;8.38;4.80;;;7.90;98.00;;;;;;5017750;28;20026;-78
2021/12/25 05:38:33;;;;;;;7.45;4.43;;;7.80;98.00;;;;;;5016277;28;20076;-77
2021/12/25 05:41:00;;;;;;;8.98;4.28;;;7.80;98.00;;;;;;5006667;28;20022;-78
2021/12/25 05:43:26;;;;;;;7.35;3.80;;;7.80;98.00;;;;;;5014026;28;20029;-77
2021/12/25 05:45:52;;;;;;;7.18;3.78;;;7.80;98.00;;;;;;5018699;28;20029;-78
2021/12/25 05:48:17;;;;;;;6.47;3.63;;;7.80;98.00;;;;;;5017995;28;20030;-78
2021/12/25 05:50:43;;;;;;;7.35;3.80;;;7.80;98.00;;;;;;5018394;28;20087;-77
2021/12/25 05:53:09;;;;;;;7.30;3.95;;;7.80;98.00;;;;;;5025725;28;20032;-77
2021/12/25 05:55:35;;;;;;;7.30;4.13;;;7.80;98.00;;;;;;5028208;28;20054;-77
2021/12/25 05:58:03;;;;;;;7.03;4.00;;;7.80;98.00;;;;;;5017925;28;20410;-78
2021/12/25 06:00:30;;;;;;;7.60;3.85;;;7.80;98.00;;;;;;5017887;28;20423;-78
2021/12/25 06:02:56;;;;;;;11.48;5.90;;;7.80;98.00;;;;;;5017724;28;20026;-78
2021/12/25 06:05:22;;;;;;;6.38;3.55;;;7.90;98.00;;;;;;5018162;28;20029;-78
2021/12/25 06:07:48;;;;;;;7.47;3.90;;;8.00;98.00;;;;;;5019722;28;20099;-77
2021/12/25 06:10:14;;;;;;;7.47;3.70;;;8.10;98.00;;;;;;5017532;28;20034;-78
2021/12/25 06:12:42;;;;;;;7.22;3.28;;;8.10;98.00;;;;;;5017511;28;20446;-78
2021/12/25 06:15:14;;;;;;;7.50;3.40;;;8.10;98.00;;;;;;5017636;28;20423;-78
2021/12/25 06:17:40;;;;;;;8.45;3.72;;;8.10;98.00;;;;;;5023715;28;20311;-78
2021/12/25 06:20:07;;;;;;;7.03;3.70;;;8.10;98.00;;;;;;5021232;28;20354;-77
2021/12/25 06:22:33;;;;;;;6.20;4.03;;;8.10;98.00;;;;;;5014846;28;20025;-78
2021/12/25 06:24:59;;;;;;;7.28;3.72;;;8.10;98.00;;;;;;5014523;28;20465;-78
2021/12/25 06:27:25;;;;;;;7.75;4.05;;;8.10;98.00;;;;;;5016315;28;20050;-78
2021/12/25 06:29:51;;;;;;;7.20;3.78;;;8.10;98.00;;;;;;5016172;28;20034;-78
2021/12/25 06:32:18;;;;;;;6.70;3.55;;;8.10;98.00;;;;;;5015799;28;20454;-78
2021/12/25 06:34:44;;;;;;;7.25;4.00;;;8.10;98.00;;;;;;5016109;28;20042;-78
2021/12/25 06:37:11;;;;;;;7.00;3.80;;;8.10;98.00;;;;;;5016899;28;20034;-77
2021/12/25 06:39:41;;;;;;;6.07;3.63;;;8.10;98.00;;;;;;5015283;28;20033;-77
2021/12/25 06:42:08;;;;;;;8.68;4.50;;;8.10;98.00;;;;;;5023374;28;20033;-78
2021/12/25 06:44:34;;;;;;;8.80;4.45;;;8.10;98.00;;;;;;5018261;28;20033;-78
2021/12/25 06:47:00;;;;;;;6.88;3.85;;;8.00;98.00;;;;;;5018398;28;20021;-78
2021/12/25 06:49:27;;;;;;;8.30;4.25;;;7.90;98.00;;;;;;5012478;28;20113;-78
2021/12/25 06:51:52;;;;;;;7.47;3.80;;;7.90;98.00;;;;;;5017611;28;20314;-78
2021/12/25 06:54:19;;;;;;;7.28;4.30;;;7.90;98.00;;;;;;5015283;28;20022;-78
2021/12/25 06:56:46;;;;;;;12.07;4.38;;;7.80;98.00;;;;;;5015878;28;20362;-78
2021/12/25 06:59:13;;;;;;;6.22;3.83;;;7.80;98.00;;;;;;5020473;28;20402;-78
2021/12/25 07:01:39;;;;;;;7.75;4.40;;;7.80;98.00;;;;;;5028587;28;20041;-78
2021/12/25 07:04:06;;;;;;;7.13;4.10;;;7.80;98.00;;;;;;5022058;28;20026;-78
2021/12/25 07:06:33;;;;;;;8.20;3.80;;;7.90;98.00;;;;;;5017799;28;20041;-78
2021/12/25 07:08:59;;;;;;;7.65;3.72;;;8.00;98.00;;;;;;5024191;28;20030;-78
2021/12/25 07:11:25;;;;;;;7.88;4.38;;;7.90;98.00;;;;;;5014656;28;20041;-78
2021/12/25 07:13:51;;;;;;;9.63;4.22;;;7.90;98.00;;;;;;5012953;28;20052;-78
2021/12/25 07:16:18;;;;;;;9.32;4.93;;;7.90;98.00;;;;;;5025598;28;20056;-77
2021/12/25 07:18:44;;;;;;;10.85;4.57;;;7.90;98.00;;;;;;5017867;28;20025;-77
2021/12/25 07:21:10;;;;;;;9.35;4.25;;;8.00;98.00;;;;;;5020096;28;20508;-77
2021/12/25 07:23:35;;;;;;;7.50;4.05;;;8.00;98.00;;;;;;5029602;28;20121;-77
2021/12/25 07:26:02;;;;;;;8.57;4.45;;;8.00;98.00;;;;;;5015238;28;20105;-79
2021/12/25 07:28:28;;;;;;;7.85;4.28;;;7.90;98.00;;;;;;5015458;28;20030;-79
2021/12/25 07:30:58;;;;;;;8.55;4.80;;;7.90;98.00;;;;;;5009885;28;20030;-79
2021/12/25 07:33:23;;;;;;;9.50;4.85;;;7.90;98.00;;;;;;5016187;28;20319;-78
2021/12/25 07:35:49;;;;;;;9.15;4.47;;;7.90;98.00;;;;;;4999215;28;20033;-79
2021/12/25 07:38:18;;;;;;;8.38;4.38;;;7.90;98.00;;;;;;5024361;28;20034;-78
2021/12/25 07:40:44;;;;;;;9.50;4.82;;;8.00;98.00;;;;;;5014239;28;20030;-78
2021/12/25 07:43:10;;;;;;;11.07;5.50;;;8.00;98.00;;;;;;5013867;28;20382;-78
2021/12/25 07:45:36;;;;;;;10.95;5.60;;;8.00;98.00;;;;;;5014603;28;20049;-78
2021/12/25 07:48:03;;;;;;;9.55;5.80;;;8.00;98.00;;;;;;5015007;28;20037;-78
2021/12/25 07:50:31;;;;;;;9.90;5.55;;;8.10;98.00;;;;;;5014751;28;20041;-78
2021/12/25 07:52:57;;;;;;;13.60;8.20;;;8.10;98.00;;;;;;5011389;28;20036;-78
2021/12/25 07:55:25;;;;;;;11.57;5.60;;;8.10;98.00;;;;;;5015134;28;20026;-78
2021/12/25 07:57:50;;;;;;;11.38;6.10;;;8.10;98.00;;;;;;5015763;28;20026;-78
2021/12/25 08:00:17;;;;;;;11.27;6.53;;;8.10;98.00;;;;;;5014203;28;20030;-78
2021/12/25 08:02:45;;;;;;;9.88;5.78;;;8.10;98.00;;;;;;5015965;28;20433;-78
2021/12/25 08:05:11;;;;;;;11.32;6.00;;;8.00;98.00;;;;;;5016031;28;20022;-78
2021/12/25 08:07:37;;;;;;;15.90;8.35;;;8.10;98.00;;;;;;5013854;28;20405;-78
2021/12/25 08:10:13;;;;;;;9.02;5.68;;;8.10;98.00;;;;;;5016301;28;20105;-77
2021/12/25 08:12:58;;;;;;;13.38;6.60;;;8.10;98.00;;;;;;5031183;28;20060;-78
2021/12/25 08:15:26;;;;;;;10.02;5.90;;;8.00;98.00;;;;;;5016461;28;20089;-78
2021/12/25 08:17:53;;;;;;;9.50;5.75;;;8.00;98.00;;;;;;5036888;28;20077;-77
2021/12/25 08:20:19;;;;;;;11.60;7.07;;;7.90;98.00;;;;;;5011850;28;20022;-78
2021/12/25 08:22:45;;;;;;;14.88;8.15;;;7.90;98.00;;;;;;5013261;28;20372;-78
2021/12/25 08:25:13;;;;;;;13.43;7.82;;;7.90;98.00;;;;;;5015432;28;20030;-78
2021/12/25 08:27:40;;;;;;;15.75;9.98;;;7.80;98.00;;;;;;5009369;28;20030;-77
2021/12/25 08:30:13;;;;;;;14.65;7.18;;;7.70;98.00;;;;;;5022108;28;20056;-78
2021/12/25 08:32:40;;;;;;;15.00;8.50;;;7.60;98.00;;;;;;5013646;28;20418;-78
2021/12/25 08:35:08;;;;;;;16.42;10.70;;;7.50;98.00;;;;;;5046655;28;20036;-78
2021/12/25 08:37:34;;;;;;;19.00;9.82;;;7.50;98.00;;;;;;5013980;28;20469;-78
2021/12/25 08:40:00;;;;;;;14.52;8.20;;;7.40;98.00;;;;;;5014647;28;20113;-78
2021/12/25 08:42:26;;;;;;;13.95;7.65;;;7.40;98.00;;;;;;5014812;28;20049;-78
2021/12/25 08:47:26;;;;;;;12.00;7.63;;;7.30;98.00;;;;;;5015103;28;20104;-78
2021/12/25 08:49:51;;;;;;;15.27;8.05;;;7.30;98.00;;;;;;5031728;28;20084;-78
2021/12/25 08:52:19;;;;;;;15.50;9.75;;;7.30;98.00;;;;;;5016187;28;20335;-78
2021/12/25 08:54:51;;;;;;;33.55;16.83;;;7.30;98.00;;;;;;5020010;28;20063;-78
2021/12/25 08:57:21;;;;;;;29.27;14.85;;;7.30;98.00;;;;;;5018628;28;20022;-78
2021/12/25 08:59:51;;;;;;;22.40;12.13;;;7.30;98.00;;;;;;5018010;28;20435;-78
2021/12/25 09:02:19;;;;;;;18.52;11.13;;;7.30;98.00;;;;;;5016766;28;20101;-77
2021/12/25 09:04:46;;;;;;;17.17;9.40;;;7.40;98.00;;;;;;5017740;28;20034;-78
2021/12/25 09:07:13;;;;;;;17.20;10.05;;;7.40;98.00;;;;;;5017071;28;20022;-77
2021/12/25 09:09:39;;;;;;;17.88;10.98;;;7.50;98.00;;;;;;5019860;28;20027;-77
2021/12/25 09:12:09;;;;;;;16.52;9.45;;;7.50;98.00;;;;;;5019244;28;20079;-78
2021/12/25 09:14:36;;;;;;;15.65;9.38;;;7.50;98.00;;;;;;5033146;28;20120;-78
2021/12/25 09:17:03;;;;;;;15.82;9.95;;;7.60;98.00;;;;;;5017599;28;20460;-78
2021/12/25 09:19:29;;;;;;;16.73;9.20;;;7.60;98.00;;;;;;5021015;28;20034;-78
2021/12/25 09:21:55;;;;;;;17.83;10.25;;;7.60;98.00;;;;;;5016616;28;20021;-78
2021/12/25 09:24:21;;;;;;;17.75;10.57;;;7.70;98.00;;;;;;5020068;28;20041;-78
2021/12/25 09:26:47;;;;;;;20.58;11.27;;;7.60;98.00;;;;;;5019943;28;20321;-78
2021/12/25 09:29:13;;;;;;;20.10;11.02;;;7.70;98.00;;;;;;5018150;28;20100;-78
2021/12/25 09:31:39;;;;;;;20.80;11.25;;;7.70;98.00;;;;;;5017324;28;20029;-78
2021/12/25 09:34:05;;;;;;;16.75;8.52;;;7.70;98.00;;;;;;5020059;28;20021;-78
2021/12/25 09:36:32;;;;;;;13.55;8.63;;;7.70;98.00;;;;;;5036451;28;20026;-78
2021/12/25 09:38:58;;;;;;;14.05;8.15;;;7.80;98.00;;;;;;5016354;28;20414;-78
2021/12/25 09:41:24;;;;;;;15.13;7.90;;;7.80;98.00;;;;;;5019376;28;20033;-77
2021/12/25 09:43:50;;;;;;;17.02;9.25;;;7.90;98.00;;;;;;5018809;28;20033;-78
2021/12/25 09:46:17;;;;;;;17.10;9.40;;;7.90;98.00;;;;;;5018507;28;20068;-77
2021/12/25 09:48:44;;;;;;;16.67;10.23;;;7.90;98.00;;;;;;5031882;28;20514;-78
2021/12/25 09:51:10;;;;;;;17.88;9.68;;;7.90;98.00;;;;;;5020799;28;20030;-78
2021/12/25 09:53:35;;;;;;;13.10;7.95;;;7.90;98.00;;;;;;5020225;28;20404;-77
2021/12/25 09:56:02;;;;;;;12.40;8.27;;;7.90;98.00;;;;;;5027260;28;20034;-78
2021/12/25 09:58:28;;;;;;;18.02;10.50;;;7.90;98.00;;;;;;5017639;28;20029;-78
2021/12/25 10:00:57;;;;;;;15.38;8.52;;;7.90;98.00;;;;;;5017127;28;20034;-78
2021/12/25 10:03:24;;;;;;;18.70;10.57;;;8.00;98.00;;;;;;5013043;28;20037;-78
2021/12/25 10:05:51;;;;;;;16.48;9.75;;;8.10;98.00;;;;;;5017871;28;20112;-77
2021/12/25 10:08:25;;;;;;;12.65;7.55;;;8.20;98.00;;;;;;5022625;28;20021;-78
2021/12/25 10:10:56;;;;;;;12.20;8.20;;;8.20;98.00;;;;;;5016867;28;20033;-77
2021/12/25 10:13:39;;;;;;;14.55;8.40;;;8.30;98.00;;;;;;5022343;28;20034;-77
2021/12/25 10:16:30;;;;;;;13.18;7.68;;;8.20;98.00;;;;;;5016816;28;20419;-77
2021/12/25 10:19:13;;;;;;;12.52;7.53;;;8.20;98.00;;;;;;5030702;28;20060;-77
2021/12/25 10:21:39;;;;;;;12.10;7.18;;;8.30;98.00;;;;;;5016787;28;20048;-79
2021/12/25 10:24:18;;;;;;;15.75;9.63;;;8.40;98.00;;;;;;5015919;28;20045;-79
2021/12/25 10:26:46;;;;;;;12.25;7.22;;;8.40;98.00;;;;;;5017905;28;20045;-78
2021/12/25 10:29:22;;;;;;;11.90;7.35;;;8.40;98.00;;;;;;5014300;28;20339;-78
2021/12/25 10:31:49;;;;;;;15.70;8.27;;;8.50;98.00;;;;;;5017999;28;20026;-78
2021/12/25 10:34:21;;;;;;;16.00;10.07;;;8.50;98.00;;;;;;5016500;28;20032;-78
2021/12/25 10:36:47;;;;;;;12.45;8.18;;;8.50;98.00;;;;;;5016699;28;20513;-78
2021/12/25 10:39:18;;;;;;;15.40;9.07;;;8.50;98.00;;;;;;5021205;28;20438;-78
2021/12/25 10:42:16;;;;;;;14.85;8.07;;;8.50;98.00;;;;;;5022640;28;20217;-78
2021/12/25 10:44:50;;;;;;;12.25;7.68;;;8.50;98.00;;;;;;5006823;28;20080;-78
2021/12/25 10:47:21;;;;;;;14.15;8.25;;;8.40;98.00;;;;;;5017386;28;20022;-78
2021/12/25 10:49:52;;;;;;;14.68;8.40;;;8.40;98.00;;;;;;5018563;28;20029;-78
2021/12/25 10:52:27;;;;;;;16.52;9.70;;;8.40;98.00;;;;;;5013020;28;20026;-78
2021/12/25 10:55:00;;;;;;;18.88;12.27;;;8.40;98.00;;;;;;5012476;28;20033;-77
2021/12/25 10:57:32;;;;;;;15.98;8.77;;;8.40;98.00;;;;;;5014536;28;20076;-77
2021/12/25 11:00:02;;;;;;;12.60;8.43;;;8.40;98.00;;;;;;5014055;28;20022;-77
2021/12/25 11:02:41;;;;;;;15.98;10.23;;;8.40;98.00;;;;;;5013473;28;20080;-78
2021/12/25 11:05:18;;;;;;;17.20;9.80;;;8.40;98.00;;;;;;5009275;28;20025;-77
2021/12/25 11:07:45;;;;;;;17.00;9.73;;;8.50;98.00;;;;;;5011263;28;20433;-77
2021/12/25 11:10:19;;;;;;;12.23;6.97;;;8.60;98.00;;;;;;5014285;28;20141;-78
2021/12/25 11:12:45;;;;;;;14.93;9.07;;;8.60;98.00;;;;;;5013229;28;20092;-78
2021/12/25 11:15:14;;;;;;;15.18;8.95;;;8.50;98.00;;;;;;5011868;28;20050;-77
2021/12/25 11:17:41;;;;;;;12.60;7.15;;;8.40;98.00;;;;;;5012677;28;20034;-77
2021/12/25 11:20:17;;;;;;;11.57;7.63;;;8.30;98.00;;;;;;5011644;28;20049;-77
2021/12/25 11:22:54;;;;;;;18.98;11.45;;;8.10;98.00;;;;;;5008910;28;20049;-78
2021/12/25 11:25:25;;;;;;;10.80;6.95;;;8.10;98.00;;;;;;5011926;28;20034;-78
2021/12/25 11:27:51;;;;;;;10.10;6.18;;;8.10;98.00;;;;;;5012789;28;20081;-77
2021/12/25 11:30:21;;;;;;;12.45;6.75;;;8.10;98.00;;;;;;5012382;28;20132;-78
2021/12/25 11:32:49;;;;;;;8.30;4.20;;;8.10;98.00;;;;;;5012763;28;20450;-78
2021/12/25 11:35:19;;;;;;;7.70;3.88;;;8.20;98.00;;;;;;5011673;28;20050;-78
2021/12/25 11:37:46;;;;;;;9.45;3.85;;;8.20;98.00;;;;;;5026451;28;20026;-78
2021/12/25 11:40:14;;;;;;;12.75;5.75;;;8.20;98.00;;;;;;5016383;28;20036;-78
2021/12/25 11:42:46;;;;;;;6.93;3.60;;;8.20;98.00;;;;;;5011006;28;20100;-78
2021/12/25 11:45:19;;;;;;;8.77;3.55;;;8.20;98.00;;;;;;5010615;28;20084;-78
2021/12/25 11:47:53;;;;;;;6.82;3.22;;;8.30;98.00;;;;;;5009729;28;20084;-77
2021/12/25 11:50:40;;;;;;;6.90;3.35;;;8.40;98.00;;;;;;5011759;28;20040;-78
2021/12/25 11:56:39;;;;;;;6.70;3.22;;;8.50;98.00;;;;;;4996394;28;20391;-78
2021/12/25 11:59:19;;;;;;;5.20;2.88;;;8.50;98.00;;;;;;5012030;28;20034;-78
2021/12/25 12:01:48;;;;;;;7.45;3.30;;;8.50;98.00;;;;;;5017265;28;20036;-78
2021/12/25 12:04:14;;;;;;;6.47;3.80;;;8.50;98.00;;;;;;5013218;28;20030;-77
2021/12/25 12:06:46;;;;;;;8.32;4.68;;;8.50;98.00;;;;;;5012235;28;20485;-78
2021/12/25 12:09:32;;;;;;;6.10;3.30;;;8.50;98.00;;;;;;5009302;28;20382;-78
2021/12/25 12:12:04;;;;;;;7.07;3.78;;;8.50;98.00;;;;;;5026301;28;20030;-77
2021/12/25 12:14:31;;;;;;;7.13;3.75;;;8.40;98.00;;;;;;5012057;28;20615;-78
2021/12/25 12:17:25;;;;;;;6.20;3.70;;;8.40;98.00;;;;;;5017176;28;20337;-77
2021/12/25 12:19:53;;;;;;;6.80;3.17;;;8.40;98.00;;;;;;5011057;28;20042;-78
2021/12/25 12:22:38;;;;;;;6.25;2.70;;;8.40;98.00;;;;;;5010383;28;20069;-77
2021/12/25 12:27:56;;;;;;;8.05;3.80;;;8.30;98.00;;;;;;5011848;28;20048;-77
2021/12/25 12:30:31;;;;;;;10.05;3.97;;;8.40;98.00;;;;;;5041273;28;20125;-77
2021/12/25 12:33:17;;;;;;;5.35;2.92;;;8.30;98.00;;;;;;5011930;28;20038;-78
2021/12/25 12:35:45;;;;;;;5.35;2.83;;;8.30;98.00;;;;;;5004305;28;20410;-77
2021/12/25 12:38:39;;;;;;;5.55;2.80;;;8.30;98.00;;;;;;5008953;28;20052;-77
2021/12/25 12:41:16;;;;;;;7.30;3.03;;;8.30;98.00;;;;;;5009463;28;20037;-78
2021/12/25 12:44:05;;;;;;;6.20;2.80;;;8.30;98.00;;;;;;5009984;28;20474;-77
2021/12/25 12:46:55;;;;;;;6.03;2.60;;;8.30;98.00;;;;;;5010188;28;20108;-78
2021/12/25 12:49:26;;;;;;;4.32;2.08;;;8.30;98.00;;;;;;5009929;28;20088;-78
2021/12/25 12:52:14;;;;;;;8.30;3.35;;;8.30;98.00;;;;;;5009797;28;20022;-78
2021/12/25 12:55:04;;;;;;;5.20;2.53;;;8.30;98.00;;;;;;5014662;28;20025;-78
2021/12/25 12:57:42;;;;;;;5.70;2.90;;;8.30;98.00;;;;;;5010363;28;20022;-78
2021/12/25 13:00:28;;;;;;;3.97;1.85;;;8.30;98.00;;;;;;5010592;28;20742;-79
2021/12/25 13:02:57;;;;;;;4.07;2.00;;;8.30;98.00;;;;;;5008265;28;20099;-78
2021/12/25 13:05:36;;;;;;;5.80;3.15;;;8.30;98.00;;;;;;5012570;28;20041;-77
2021/12/25 13:08:20;;;;;;;4.80;2.40;;;8.30;98.00;;;;;;5038819;28;20426;-78
2021/12/25 13:13:18;;;;;;;4.88;2.28;;;8.30;98.00;;;;;;5007815;28;20026;-78
2021/12/25 13:15:48;;;;;;;5.15;2.20;;;8.30;98.00;;;;;;5015274;28;20087;-76
2021/12/25 13:18:16;;;;;;;5.35;2.97;;;8.30;98.00;;;;;;5010658;28;20057;-78
2021/12/25 13:20:50;;;;;;;5.20;2.33;;;8.30;98.00;;;;;;5012947;28;20422;-79
2021/12/25 13:23:24;;;;;;;5.78;3.08;;;8.30;98.00;;;;;;5011695;28;20367;-78
2021/12/25 13:26:01;;;;;;;6.53;3.10;;;8.30;98.00;;;;;;5013901;28;20366;-78
2021/12/25 13:28:29;;;;;;;5.85;2.80;;;8.20;98.00;;;;;;5011259;28;20030;-77
2021/12/25 13:31:04;;;;;;;14.38;8.00;;;8.10;98.00;;;;;;5014323;28;20061;-77
2021/12/25 13:33:34;;;;;;;17.88;11.00;;;8.10;98.00;;;;;;5015912;28;20371;-78
2021/12/25 13:36:14;;;;;;;8.95;4.53;;;8.10;98.00;;;;;;5011543;28;20406;-78
2021/12/25 13:38:58;;;;;;;18.67;12.27;;;8.00;98.00;;;;;;5029065;28;20060;-78
2021/12/25 13:41:28;;;;;;;13.38;7.15;;;8.00;98.00;;;;;;5019450;28;20080;-77
2021/12/25 13:44:14;;;;;;;8.55;4.68;;;7.90;98.00;;;;;;5010380;28;20077;-78
2021/12/25 13:46:53;;;;;;;14.90;8.45;;;7.90;98.00;;;;;;5017486;28;20117;-77
2021/12/25 13:49:29;;;;;;;13.30;8.65;;;7.90;98.00;;;;;;5014504;28;20108;-78
2021/12/25 13:51:55;;;;;;;9.85;5.70;;;8.00;98.00;;;;;;5030334;28;20034;-77
2021/12/25 13:54:22;;;;;;;13.43;8.80;;;8.00;98.00;;;;;;5030729;28;20057;-78
2021/12/25 13:56:49;;;;;;;8.20;4.93;;;8.10;98.00;;;;;;5016977;28;20088;-78
2021/12/25 13:59:15;;;;;;;7.82;4.50;;;8.00;98.00;;;;;;5016453;28;20087;-78
2021/12/25 14:01:41;;;;;;;25.95;17.58;;;7.90;98.00;;;;;;5018872;28;20048;-78
2021/12/25 14:04:09;;;;;;;19.98;13.73;;;7.90;98.00;;;;;;5019960;28;20121;-78
2021/12/25 14:06:35;;;;;;;10.32;6.90;;;7.90;98.00;;;;;;5014749;28;20374;-78
2021/12/25 14:09:00;;;;;;;12.38;6.65;;;7.90;98.00;;;;;;5015208;28;20022;-79
2021/12/25 14:11:28;;;;;;;10.13;6.60;;;7.90;98.00;;;;;;5027647;28;20033;-79
2021/12/25 14:13:55;;;;;;;16.08;11.25;;;7.90;98.00;;;;;;5019573;28;20053;-78
2021/12/25 14:16:21;;;;;;;18.10;12.75;;;7.80;97.90;;;;;;5012678;28;20053;-78
2021/12/25 14:18:47;;;;;;;16.50;11.45;;;7.80;97.70;;;;;;5011307;28;20304;-78
2021/12/25 14:21:21;;;;;;;11.90;8.85;;;7.80;97.50;;;;;;5011310;28;20026;-78
2021/12/25 14:24:00;;;;;;;14.80;8.38;;;7.80;97.10;;;;;;5011508;28;20036;-78
2021/12/25 14:26:26;;;;;;;10.75;6.70;;;7.90;97.50;;;;;;5016934;28;20029;-78